sensor_id;sensor_type;location;lat;lon;timestamp;pressure;altitude;pressure_sealevel;temperature;humidity
50087;BME280;35967;50.718;7.050;2023-04-20T00:07:36;101141.84;;;9.62;47.32
50087;BME280;35967;50.718;7.050;2023-04-20T00:17:44;101133.38;;;9.54;46.47
50087;BME280;35967;50.718;7.050;2023-04-20T00:27:47;101106.00;;;9.50;48.08
50087;BME280;35967;50.718;7.050;2023-04-20T00:37:52;101085.63;;;9.31;48.90
50087;BME280;35967;50.718;7.050;2023-04-20T00:47:55;101079.72;;;9.23;48.98
50087;BME280;35967;50.718;7.050;2023-04-20T00:57:59;101064.41;;;9.12;49.83
50087;BME280;35967;50.718;7.050;2023-04-20T01:08:24;101040.28;;;9.27;50.70
50087;BME280;35967;50.718;7.050;2023-04-20T01:18:49;101036.22;;;9.07;51.08
50087;BME280;35967;50.718;7.050;2023-04-20T01:28:55;101032.69;;;9.16;50.97
50087;BME280;35967;50.718;7.050;2023-04-20T01:38:58;101018.22;;;9.06;50.75
50087;BME280;35967;50.718;7.050;2023-04-20T01:49:04;101005.31;;;9.15;51.13
50087;BME280;35967;50.718;7.050;2023-04-20T01:59:07;101001.75;;;9.27;50.85
50087;BME280;35967;50.718;7.050;2023-04-20T02:09:11;101002.00;;;9.05;51.23
50087;BME280;35967;50.718;7.050;2023-04-20T02:19:14;100984.69;;;9.23;50.03
50087;BME280;35967;50.718;7.050;2023-04-20T02:29:19;100967.53;;;9.25;50.51
50087;BME280;35967;50.718;7.050;2023-04-20T02:39:22;100947.03;;;9.20;50.64
50087;BME280;35967;50.718;7.050;2023-04-20T02:49:29;100933.22;;;9.29;51.05
50087;BME280;35967;50.718;7.050;2023-04-20T02:59:33;100918.66;;;9.31;51.90
50087;BME280;35967;50.718;7.050;2023-04-20T03:09:51;100920.56;;;9.17;52.91
50087;BME280;35967;50.718;7.050;2023-04-20T03:20:23;100923.13;;;9.17;54.14
50087;BME280;35967;50.718;7.050;2023-04-20T03:30:28;100936.66;;;8.44;58.50
50087;BME280;35967;50.718;7.050;2023-04-20T03:40:43;100920.38;;;8.52;60.05
50087;BME280;35967;50.718;7.050;2023-04-20T03:50:48;100917.72;;;8.60;63.43
50087;BME280;35967;50.718;7.050;2023-04-20T04:00:51;100902.16;;;8.79;63.26
50087;BME280;35967;50.718;7.050;2023-04-20T04:10:56;100899.56;;;8.80;66.13
50087;BME280;35967;50.718;7.050;2023-04-20T04:20:59;100905.94;;;8.36;66.66
50087;BME280;35967;50.718;7.050;2023-04-20T04:31:06;100915.72;;;7.89;68.55
50087;BME280;35967;50.718;7.050;2023-04-20T04:41:10;100886.41;;;8.24;69.74
50087;BME280;35967;50.718;7.050;2023-04-20T04:51:16;100886.34;;;8.29;71.10
50087;BME280;35967;50.718;7.050;2023-04-20T05:01:20;100879.84;;;7.89;71.66
50087;BME280;35967;50.718;7.050;2023-04-20T05:11:24;100883.09;;;8.08;73.32
50087;BME280;35967;50.718;7.050;2023-04-20T05:21:27;100877.13;;;8.08;75.05
50087;BME280;35967;50.718;7.050;2023-04-20T05:31:32;100876.13;;;8.23;76.14
50087;BME280;35967;50.718;7.050;2023-04-20T05:41:35;100869.34;;;8.18;77.01
50087;BME280;35967;50.718;7.050;2023-04-20T05:51:40;100868.47;;;8.21;76.97
50087;BME280;35967;50.718;7.050;2023-04-20T06:01:44;100863.34;;;8.21;78.03
50087;BME280;35967;50.718;7.050;2023-04-20T06:11:48;100868.47;;;8.19;76.92
50087;BME280;35967;50.718;7.050;2023-04-20T06:21:52;100864.03;;;8.35;80.04
50087;BME280;35967;50.718;7.050;2023-04-20T06:31:56;100865.91;;;8.18;81.30
50087;BME280;35967;50.718;7.050;2023-04-20T06:42:01;100861.91;;;7.87;81.65
50087;BME280;35967;50.718;7.050;2023-04-20T06:52:06;100857.81;;;7.58;83.09
50087;BME280;35967;50.718;7.050;2023-04-20T07:02:10;100859.66;;;7.42;82.53
50087;BME280;35967;50.718;7.050;2023-04-20T07:12:14;100853.69;;;7.37;84.37
50087;BME280;35967;50.718;7.050;2023-04-20T07:22:18;100852.97;;;7.10;86.42
50087;BME280;35967;50.718;7.050;2023-04-20T07:32:22;100852.00;;;7.30;86.10
50087;BME280;35967;50.718;7.050;2023-04-20T07:42:25;100842.69;;;7.21;87.46
50087;BME280;35967;50.718;7.050;2023-04-20T07:52:30;100845.88;;;7.57;88.85
50087;BME280;35967;50.718;7.050;2023-04-20T08:02:33;100854.59;;;7.32;88.52
50087;BME280;35967;50.718;7.050;2023-04-20T08:12:38;100844.19;;;7.56;87.43
50087;BME280;35967;50.718;7.050;2023-04-20T08:22:42;100840.69;;;7.67;88.41
50087;BME280;35967;50.718;7.050;2023-04-20T08:32:46;100833.13;;;7.47;89.26
50087;BME280;35967;50.718;7.050;2023-04-20T08:42:49;100832.22;;;7.57;89.29
50087;BME280;35967;50.718;7.050;2023-04-20T08:52:54;100827.25;;;7.35;88.01
50087;BME280;35967;50.718;7.050;2023-04-20T09:02:57;100831.25;;;7.70;89.30
50087;BME280;35967;50.718;7.050;2023-04-20T09:13:04;100825.22;;;7.84;87.42
50087;BME280;35967;50.718;7.050;2023-04-20T09:23:11;100813.94;;;8.02;87.89
50087;BME280;35967;50.718;7.050;2023-04-20T09:33:16;100807.88;;;8.12;83.29
50087;BME280;35967;50.718;7.050;2023-04-20T09:43:23;100793.84;;;8.49;82.84
50087;BME280;35967;50.718;7.050;2023-04-20T09:53:29;100805.88;;;8.41;78.64
50087;BME280;35967;50.718;7.050;2023-04-20T10:03:33;100800.63;;;8.53;79.19
50087;BME280;35967;50.718;7.050;2023-04-20T10:13:38;100793.81;;;8.50;75.78
50087;BME280;35967;50.718;7.050;2023-04-20T10:23:47;100785.41;;;8.34;74.42
50087;BME280;35967;50.718;7.050;2023-04-20T10:33:54;100781.84;;;8.52;71.48
50087;BME280;35967;50.718;7.050;2023-04-20T10:44:05;100786.31;;;8.30;70.65
50087;BME280;35967;50.718;7.050;2023-04-20T10:54:11;100786.69;;;8.74;71.83
50087;BME280;35967;50.718;7.050;2023-04-20T11:04:15;100781.88;;;8.45;73.95
50087;BME280;35967;50.718;7.050;2023-04-20T11:14:21;100774.72;;;8.73;75.11
50087;BME280;35967;50.718;7.050;2023-04-20T11:24:25;100775.44;;;8.84;73.04
50087;BME280;35967;50.718;7.050;2023-04-20T11:34:30;100768.03;;;8.61;72.08
50087;BME280;35967;50.718;7.050;2023-04-20T11:44:34;100774.38;;;8.99;71.92
50087;BME280;35967;50.718;7.050;2023-04-20T11:54:39;100749.34;;;9.14;65.81
50087;BME280;35967;50.718;7.050;2023-04-20T12:04:42;100750.75;;;9.35;66.99
50087;BME280;35967;50.718;7.050;2023-04-20T12:14:47;100758.59;;;9.26;65.57
50087;BME280;35967;50.718;7.050;2023-04-20T12:24:51;100751.38;;;9.51;65.30
50087;BME280;35967;50.718;7.050;2023-04-20T12:34:57;100736.63;;;10.09;65.49
50087;BME280;35967;50.718;7.050;2023-04-20T12:45:01;100732.59;;;10.82;60.42
50087;BME280;35967;50.718;7.050;2023-04-20T12:55:06;100714.47;;;10.88;60.31
50087;BME280;35967;50.718;7.050;2023-04-20T13:05:10;100710.50;;;11.11;58.90
50087;BME280;35967;50.718;7.050;2023-04-20T13:15:14;100694.38;;;10.65;58.32
50087;BME280;35967;50.718;7.050;2023-04-20T13:36:42;100665.47;;;11.92;52.11
50087;BME280;35967;50.718;7.050;2023-04-20T13:46:46;100654.41;;;11.23;54.00
50087;BME280;35967;50.718;7.050;2023-04-20T13:56:51;100663.94;;;11.19;50.75
50087;BME280;35967;50.718;7.050;2023-04-20T14:06:54;100639.22;;;11.12;51.56
50087;BME280;35967;50.718;7.050;2023-04-20T14:16:58;100640.19;;;11.08;55.01
50087;BME280;35967;50.718;7.050;2023-04-20T14:27:02;100641.03;;;11.08;55.10
50087;BME280;35967;50.718;7.050;2023-04-20T14:37:07;100633.25;;;11.10;53.52
50087;BME280;35967;50.718;7.050;2023-04-20T14:47:10;100652.34;;;11.01;52.19
50087;BME280;35967;50.718;7.050;2023-04-20T14:57:14;100629.03;;;11.07;51.24
50087;BME280;35967;50.718;7.050;2023-04-20T15:07:17;100621.16;;;11.13;51.63
50087;BME280;35967;50.718;7.050;2023-04-20T15:17:22;100598.75;;;11.17;49.56
50087;BME280;35967;50.718;7.050;2023-04-20T15:27:25;100594.47;;;11.16;50.23
50087;BME280;35967;50.718;7.050;2023-04-20T15:37:30;100583.00;;;11.26;51.24
50087;BME280;35967;50.718;7.050;2023-04-20T15:47:33;100588.28;;;11.23;50.36
50087;BME280;35967;50.718;7.050;2023-04-20T15:57:38;100578.16;;;11.48;51.44
50087;BME280;35967;50.718;7.050;2023-04-20T16:07:44;100573.25;;;11.71;50.71
50087;BME280;35967;50.718;7.050;2023-04-20T16:17:48;100591.59;;;11.60;50.11
50087;BME280;35967;50.718;7.050;2023-04-20T16:27:52;100654.66;;;10.36;64.71
50087;BME280;35967;50.718;7.050;2023-04-20T16:37:56;100650.69;;;10.20;65.07
50087;BME280;35967;50.718;7.050;2023-04-20T16:47:59;100666.28;;;10.12;64.38
50087;BME280;35967;50.718;7.050;2023-04-20T16:58:03;100678.44;;;10.04;64.66
50087;BME280;35967;50.718;7.050;2023-04-20T17:08:07;100677.25;;;9.76;70.82
50087;BME280;35967;50.718;7.050;2023-04-20T17:18:12;100681.22;;;9.93;71.39
50087;BME280;35967;50.718;7.050;2023-04-20T17:28:14;100692.59;;;9.81;71.09
50087;BME280;35967;50.718;7.050;2023-04-20T17:38:18;100699.28;;;9.90;70.05
50087;BME280;35967;50.718;7.050;2023-04-20T17:48:21;100707.38;;;9.68;70.71
50087;BME280;35967;50.718;7.050;2023-04-20T17:58:26;100718.00;;;9.48;72.36
50087;BME280;35967;50.718;7.050;2023-04-20T18:08:29;100708.97;;;9.77;72.07
50087;BME280;35967;50.718;7.050;2023-04-20T18:18:33;100711.69;;;9.66;72.09
50087;BME280;35967;50.718;7.050;2023-04-20T18:28:36;100702.34;;;9.62;71.85
50087;BME280;35967;50.718;7.050;2023-04-20T18:38:41;100709.13;;;9.66;72.10
50087;BME280;35967;50.718;7.050;2023-04-20T18:48:45;100706.47;;;9.71;71.79
50087;BME280;35967;50.718;7.050;2023-04-20T18:58:49;100704.53;;;9.34;73.20
50087;BME280;35967;50.718;7.050;2023-04-20T19:08:52;100701.69;;;9.51;74.29
50087;BME280;35967;50.718;7.050;2023-04-20T19:18:58;100691.59;;;9.41;76.24
50087;BME280;35967;50.718;7.050;2023-04-20T19:29:02;100693.13;;;9.99;80.30
50087;BME280;35967;50.718;7.050;2023-04-20T19:39:07;100686.19;;;9.57;80.18
50087;BME280;35967;50.718;7.050;2023-04-20T19:49:10;100660.47;;;9.57;82.15
50087;BME280;35967;50.718;7.050;2023-04-20T19:59:15;100656.25;;;9.53;82.89
50087;BME280;35967;50.718;7.050;2023-04-20T20:09:19;100678.88;;;9.30;84.42
50087;BME280;35967;50.718;7.050;2023-04-20T20:19:27;100680.38;;;9.45;85.41
50087;BME280;35967;50.718;7.050;2023-04-20T20:29:31;100701.22;;;9.27;86.71
50087;BME280;35967;50.718;7.050;2023-04-20T20:39:37;100691.22;;;9.10;88.06
50087;BME280;35967;50.718;7.050;2023-04-20T20:49:41;100698.66;;;8.69;91.88
50087;BME280;35967;50.718;7.050;2023-04-20T20:59:46;100670.44;;;8.69;93.31
50087;BME280;35967;50.718;7.050;2023-04-20T21:09:49;100679.69;;;8.79;93.55
50087;BME280;35967;50.718;7.050;2023-04-20T21:19:54;100667.19;;;8.55;93.74
50087;BME280;35967;50.718;7.050;2023-04-20T21:29:57;100666.19;;;8.65;94.34
50087;BME280;35967;50.718;7.050;2023-04-20T21:40:02;100664.41;;;8.70;94.27
50087;BME280;35967;50.718;7.050;2023-04-20T21:50:06;100669.47;;;8.75;94.98
50087;BME280;35967;50.718;7.050;2023-04-20T22:00:11;100638.50;;;8.86;94.49
50087;BME280;35967;50.718;7.050;2023-04-20T22:10:18;100639.41;;;8.84;94.43
50087;BME280;35967;50.718;7.050;2023-04-20T22:20:23;100645.66;;;8.65;96.13
50087;BME280;35967;50.718;7.050;2023-04-20T22:30:27;100649.81;;;8.74;95.53
50087;BME280;35967;50.718;7.050;2023-04-20T22:40:32;100627.50;;;8.77;96.40
50087;BME280;35967;50.718;7.050;2023-04-20T22:50:35;100604.50;;;8.71;96.44
50087;BME280;35967;50.718;7.050;2023-04-20T23:00:39;100595.28;;;8.61;97.08
50087;BME280;35967;50.718;7.050;2023-04-20T23:10:43;100583.88;;;8.77;97.74
50087;BME280;35967;50.718;7.050;2023-04-20T23:20:49;100572.03;;;8.72;98.31
50087;BME280;35967;50.718;7.050;2023-04-20T23:30:52;100562.69;;;8.66;99.38
50087;BME280;35967;50.718;7.050;2023-04-20T23:40:56;100557.59;;;8.64;100.00
50087;BME280;35967;50.718;7.050;2023-04-20T23:51:00;100552.56;;;8.57;100.00
